sensor_id;sensor_type;location;lat;lon;timestamp;P1;durP1;ratioP1;P2;durP2;ratioP2
51558;SDS011;61650;48.882;2.092;2022-07-21T00:02:00;3.10;;;2.87;;
51558;SDS011;61650;48.882;2.092;2022-07-21T00:04:26;2.57;;;2.37;;
51558;SDS011;61650;48.882;2.092;2022-07-21T00:06:51;2.87;;;2.67;;
51558;SDS011;61650;48.882;2.092;2022-07-21T00:09:17;2.80;;;2.60;;
51558;SDS011;61650;48.882;2.092;2022-07-21T00:11:43;3.00;;;2.70;;
51558;SDS011;61650;48.882;2.092;2022-07-21T00:14:09;2.80;;;2.60;;
51558;SDS011;61650;48.882;2.092;2022-07-21T00:16:36;3.10;;;2.43;;
51558;SDS011;61650;48.882;2.092;2022-07-21T00:19:02;4.73;;;2.47;;
51558;SDS011;61650;48.882;2.092;2022-07-21T00:21:28;2.70;;;2.50;;
51558;SDS011;61650;48.882;2.092;2022-07-21T00:23:54;3.43;;;3.10;;
51558;SDS011;61650;48.882;2.092;2022-07-21T00:26:19;2.77;;;2.57;;
51558;SDS011;61650;48.882;2.092;2022-07-21T00:28:45;3.60;;;2.40;;
51558;SDS011;61650;48.882;2.092;2022-07-21T00:31:11;3.10;;;2.37;;
51558;SDS011;61650;48.882;2.092;2022-07-21T00:33:37;3.17;;;2.73;;
51558;SDS011;61650;48.882;2.092;2022-07-21T00:36:03;3.10;;;2.40;;
51558;SDS011;61650;48.882;2.092;2022-07-21T00:38:28;5.30;;;2.50;;
51558;SDS011;61650;48.882;2.092;2022-07-21T00:40:54;3.10;;;2.90;;
51558;SDS011;61650;48.882;2.092;2022-07-21T00:43:20;3.60;;;2.73;;
51558;SDS011;61650;48.882;2.092;2022-07-21T00:45:46;3.17;;;2.80;;
51558;SDS011;61650;48.882;2.092;2022-07-21T00:48:11;3.00;;;2.43;;
51558;SDS011;61650;48.882;2.092;2022-07-21T00:50:37;3.20;;;2.63;;
51558;SDS011;61650;48.882;2.092;2022-07-21T00:53:03;3.10;;;2.37;;
51558;SDS011;61650;48.882;2.092;2022-07-21T00:55:28;3.03;;;2.60;;
51558;SDS011;61650;48.882;2.092;2022-07-21T00:57:54;4.80;;;2.87;;
51558;SDS011;61650;48.882;2.092;2022-07-21T01:00:21;2.60;;;2.40;;
51558;SDS011;61650;48.882;2.092;2022-07-21T01:02:50;2.60;;;2.40;;
51558;SDS011;61650;48.882;2.092;2022-07-21T01:05:16;3.30;;;2.60;;
51558;SDS011;61650;48.882;2.092;2022-07-21T01:07:48;2.97;;;2.53;;
51558;SDS011;61650;48.882;2.092;2022-07-21T01:10:16;3.30;;;2.60;;
51558;SDS011;61650;48.882;2.092;2022-07-21T01:12:42;3.07;;;2.80;;
51558;SDS011;61650;48.882;2.092;2022-07-21T01:15:09;3.47;;;2.40;;
51558;SDS011;61650;48.882;2.092;2022-07-21T01:17:36;4.47;;;3.23;;
51558;SDS011;61650;48.882;2.092;2022-07-21T01:20:06;3.23;;;2.67;;
51558;SDS011;61650;48.882;2.092;2022-07-21T01:22:34;3.50;;;3.20;;
51558;SDS011;61650;48.882;2.092;2022-07-21T01:25:01;3.83;;;2.50;;
51558;SDS011;61650;48.882;2.092;2022-07-21T01:27:28;2.93;;;2.70;;
51558;SDS011;61650;48.882;2.092;2022-07-21T01:29:54;3.50;;;3.20;;
51558;SDS011;61650;48.882;2.092;2022-07-21T01:32:20;4.10;;;2.97;;
51558;SDS011;61650;48.882;2.092;2022-07-21T01:34:46;2.60;;;2.40;;
51558;SDS011;61650;48.882;2.092;2022-07-21T01:37:12;3.13;;;2.93;;
51558;SDS011;61650;48.882;2.092;2022-07-21T01:39:38;4.23;;;2.93;;
51558;SDS011;61650;48.882;2.092;2022-07-21T01:42:23;2.87;;;2.57;;
51558;SDS011;61650;48.882;2.092;2022-07-21T01:44:49;3.37;;;2.80;;
51558;SDS011;61650;48.882;2.092;2022-07-21T01:47:15;3.23;;;2.97;;
51558;SDS011;61650;48.882;2.092;2022-07-21T01:49:42;5.70;;;3.20;;
51558;SDS011;61650;48.882;2.092;2022-07-21T01:52:10;5.80;;;3.10;;
51558;SDS011;61650;48.882;2.092;2022-07-21T01:54:36;3.40;;;3.10;;
51558;SDS011;61650;48.882;2.092;2022-07-21T01:57:02;3.40;;;2.90;;
51558;SDS011;61650;48.882;2.092;2022-07-21T01:59:28;3.40;;;3.10;;
51558;SDS011;61650;48.882;2.092;2022-07-21T02:01:53;3.50;;;3.20;;
51558;SDS011;61650;48.882;2.092;2022-07-21T02:04:19;4.87;;;2.90;;
51558;SDS011;61650;48.882;2.092;2022-07-21T02:06:44;3.20;;;2.90;;
51558;SDS011;61650;48.882;2.092;2022-07-21T02:09:10;2.70;;;2.50;;
51558;SDS011;61650;48.882;2.092;2022-07-21T02:11:36;4.00;;;3.20;;
51558;SDS011;61650;48.882;2.092;2022-07-21T02:14:02;4.43;;;3.00;;
51558;SDS011;61650;48.882;2.092;2022-07-21T02:16:28;3.60;;;3.30;;
51558;SDS011;61650;48.882;2.092;2022-07-21T02:18:54;4.50;;;3.70;;
51558;SDS011;61650;48.882;2.092;2022-07-21T02:21:19;3.23;;;2.90;;
51558;SDS011;61650;48.882;2.092;2022-07-21T02:23:45;4.03;;;3.60;;
51558;SDS011;61650;48.882;2.092;2022-07-21T02:26:11;4.80;;;3.63;;
51558;SDS011;61650;48.882;2.092;2022-07-21T02:28:36;4.37;;;3.97;;
51558;SDS011;61650;48.882;2.092;2022-07-21T02:31:03;4.17;;;3.27;;
51558;SDS011;61650;48.882;2.092;2022-07-21T02:33:28;4.93;;;3.30;;
51558;SDS011;61650;48.882;2.092;2022-07-21T02:35:54;4.93;;;3.30;;
51558;SDS011;61650;48.882;2.092;2022-07-21T02:38:20;3.80;;;3.00;;
51558;SDS011;61650;48.882;2.092;2022-07-21T02:40:45;3.13;;;2.83;;
51558;SDS011;61650;48.882;2.092;2022-07-21T02:43:11;3.20;;;3.00;;
51558;SDS011;61650;48.882;2.092;2022-07-21T02:45:37;3.70;;;3.40;;
51558;SDS011;61650;48.882;2.092;2022-07-21T02:48:05;5.37;;;3.00;;
51558;SDS011;61650;48.882;2.092;2022-07-21T02:50:33;3.40;;;3.10;;
51558;SDS011;61650;48.882;2.092;2022-07-21T02:53:01;3.20;;;3.00;;
51558;SDS011;61650;48.882;2.092;2022-07-21T02:55:44;6.40;;;3.53;;
51558;SDS011;61650;48.882;2.092;2022-07-21T02:58:16;3.70;;;3.40;;
51558;SDS011;61650;48.882;2.092;2022-07-21T03:00:48;5.13;;;3.53;;
51558;SDS011;61650;48.882;2.092;2022-07-21T03:03:16;4.43;;;4.03;;
51558;SDS011;61650;48.882;2.092;2022-07-21T03:05:41;3.23;;;2.93;;
51558;SDS011;61650;48.882;2.092;2022-07-21T03:08:07;4.80;;;4.10;;
51558;SDS011;61650;48.882;2.092;2022-07-21T03:10:35;4.80;;;3.40;;
51558;SDS011;61650;48.882;2.092;2022-07-21T03:13:01;5.83;;;3.83;;
51558;SDS011;61650;48.882;2.092;2022-07-21T03:15:27;4.50;;;4.10;;
51558;SDS011;61650;48.882;2.092;2022-07-21T03:17:53;4.20;;;3.80;;
51558;SDS011;61650;48.882;2.092;2022-07-21T03:20:21;4.97;;;4.57;;
51558;SDS011;61650;48.882;2.092;2022-07-21T03:22:50;4.03;;;3.73;;
51558;SDS011;61650;48.882;2.092;2022-07-21T03:25:16;5.57;;;4.40;;
51558;SDS011;61650;48.882;2.092;2022-07-21T03:27:42;4.33;;;3.93;;
51558;SDS011;61650;48.882;2.092;2022-07-21T03:30:09;6.77;;;4.30;;
51558;SDS011;61650;48.882;2.092;2022-07-21T03:32:35;5.33;;;4.30;;
51558;SDS011;61650;48.882;2.092;2022-07-21T03:35:01;5.80;;;5.23;;
51558;SDS011;61650;48.882;2.092;2022-07-21T03:37:28;7.43;;;6.07;;
51558;SDS011;61650;48.882;2.092;2022-07-21T03:39:53;7.07;;;5.23;;
51558;SDS011;61650;48.882;2.092;2022-07-21T03:42:20;7.00;;;6.33;;
51558;SDS011;61650;48.882;2.092;2022-07-21T03:44:45;5.73;;;5.17;;
51558;SDS011;61650;48.882;2.092;2022-07-21T03:47:11;7.10;;;6.23;;
51558;SDS011;61650;48.882;2.092;2022-07-21T03:49:37;6.47;;;5.90;;
51558;SDS011;61650;48.882;2.092;2022-07-21T03:52:02;7.13;;;6.43;;
51558;SDS011;61650;48.882;2.092;2022-07-21T03:54:28;7.83;;;7.03;;
51558;SDS011;61650;48.882;2.092;2022-07-21T03:56:54;9.00;;;7.70;;
51558;SDS011;61650;48.882;2.092;2022-07-21T03:59:19;8.70;;;7.10;;
51558;SDS011;61650;48.882;2.092;2022-07-21T04:01:45;8.47;;;7.67;;
51558;SDS011;61650;48.882;2.092;2022-07-21T04:04:10;9.60;;;8.20;;
51558;SDS011;61650;48.882;2.092;2022-07-21T04:06:36;8.80;;;7.90;;
51558;SDS011;61650;48.882;2.092;2022-07-21T04:09:02;10.83;;;8.23;;
51558;SDS011;61650;48.882;2.092;2022-07-21T04:11:28;9.47;;;8.57;;
51558;SDS011;61650;48.882;2.092;2022-07-21T04:13:55;8.67;;;7.87;;
51558;SDS011;61650;48.882;2.092;2022-07-21T04:16:21;7.77;;;6.97;;
51558;SDS011;61650;48.882;2.092;2022-07-21T04:18:47;9.73;;;8.73;;
51558;SDS011;61650;48.882;2.092;2022-07-21T04:21:13;10.07;;;8.97;;
51558;SDS011;61650;48.882;2.092;2022-07-21T04:23:38;8.63;;;7.77;;
51558;SDS011;61650;48.882;2.092;2022-07-21T04:26:04;9.67;;;8.73;;
51558;SDS011;61650;48.882;2.092;2022-07-21T04:28:30;10.17;;;8.47;;
51558;SDS011;61650;48.882;2.092;2022-07-21T04:30:56;9.20;;;8.30;;
51558;SDS011;61650;48.882;2.092;2022-07-21T04:33:22;9.73;;;8.73;;
51558;SDS011;61650;48.882;2.092;2022-07-21T04:35:47;9.10;;;8.20;;
51558;SDS011;61650;48.882;2.092;2022-07-21T04:38:13;9.33;;;8.53;;
51558;SDS011;61650;48.882;2.092;2022-07-21T04:40:39;9.90;;;7.97;;
51558;SDS011;61650;48.882;2.092;2022-07-21T04:43:05;8.93;;;8.13;;
51558;SDS011;61650;48.882;2.092;2022-07-21T04:45:30;9.77;;;8.87;;
51558;SDS011;61650;48.882;2.092;2022-07-21T04:47:56;9.67;;;8.73;;
51558;SDS011;61650;48.882;2.092;2022-07-21T04:50:23;8.90;;;8.10;;
51558;SDS011;61650;48.882;2.092;2022-07-21T04:52:50;11.10;;;8.60;;
51558;SDS011;61650;48.882;2.092;2022-07-21T04:55:17;10.40;;;9.30;;
51558;SDS011;61650;48.882;2.092;2022-07-21T04:57:46;11.57;;;9.30;;
51558;SDS011;61650;48.882;2.092;2022-07-21T05:00:14;11.73;;;10.40;;
51558;SDS011;61650;48.882;2.092;2022-07-21T05:02:42;15.60;;;9.20;;
51558;SDS011;61650;48.882;2.092;2022-07-21T05:05:09;11.00;;;9.30;;
51558;SDS011;61650;48.882;2.092;2022-07-21T05:07:35;12.17;;;10.97;;
51558;SDS011;61650;48.882;2.092;2022-07-21T05:10:04;10.63;;;9.63;;
51558;SDS011;61650;48.882;2.092;2022-07-21T05:12:31;10.30;;;9.40;;
51558;SDS011;61650;48.882;2.092;2022-07-21T05:14:56;13.40;;;11.60;;
51558;SDS011;61650;48.882;2.092;2022-07-21T05:17:22;12.60;;;11.40;;
51558;SDS011;61650;48.882;2.092;2022-07-21T05:19:48;13.67;;;10.83;;
51558;SDS011;61650;48.882;2.092;2022-07-21T05:22:15;13.80;;;11.70;;
51558;SDS011;61650;48.882;2.092;2022-07-21T05:24:44;12.43;;;11.23;;
51558;SDS011;61650;48.882;2.092;2022-07-21T05:27:09;15.27;;;11.60;;
51558;SDS011;61650;48.882;2.092;2022-07-21T05:29:35;18.23;;;12.63;;
51558;SDS011;61650;48.882;2.092;2022-07-21T05:32:00;13.83;;;11.73;;
51558;SDS011;61650;48.882;2.092;2022-07-21T05:34:26;11.50;;;10.30;;
51558;SDS011;61650;48.882;2.092;2022-07-21T05:36:52;15.10;;;11.40;;
51558;SDS011;61650;48.882;2.092;2022-07-21T05:39:18;12.50;;;10.50;;
51558;SDS011;61650;48.882;2.092;2022-07-21T05:41:44;12.60;;;11.10;;
51558;SDS011;61650;48.882;2.092;2022-07-21T05:44:09;12.60;;;11.30;;
51558;SDS011;61650;48.882;2.092;2022-07-21T05:46:35;13.67;;;11.67;;
51558;SDS011;61650;48.882;2.092;2022-07-21T05:49:01;12.70;;;11.37;;
51558;SDS011;61650;48.882;2.092;2022-07-21T05:51:26;11.60;;;10.47;;
51558;SDS011;61650;48.882;2.092;2022-07-21T05:53:52;13.87;;;11.40;;
51558;SDS011;61650;48.882;2.092;2022-07-21T05:56:17;12.07;;;10.87;;
51558;SDS011;61650;48.882;2.092;2022-07-21T05:58:43;12.33;;;11.03;;
51558;SDS011;61650;48.882;2.092;2022-07-21T06:01:09;15.37;;;11.60;;
51558;SDS011;61650;48.882;2.092;2022-07-21T06:03:35;13.37;;;11.97;;
51558;SDS011;61650;48.882;2.092;2022-07-21T06:06:01;13.37;;;11.77;;
51558;SDS011;61650;48.882;2.092;2022-07-21T06:08:27;18.20;;;12.17;;
51558;SDS011;61650;48.882;2.092;2022-07-21T06:10:52;13.33;;;12.03;;
51558;SDS011;61650;48.882;2.092;2022-07-21T06:13:18;12.33;;;11.13;;
51558;SDS011;61650;48.882;2.092;2022-07-21T06:15:43;13.07;;;11.77;;
51558;SDS011;61650;48.882;2.092;2022-07-21T06:18:09;13.83;;;11.23;;
51558;SDS011;61650;48.882;2.092;2022-07-21T06:20:35;14.40;;;12.00;;
51558;SDS011;61650;48.882;2.092;2022-07-21T06:23:00;13.63;;;12.13;;
51558;SDS011;61650;48.882;2.092;2022-07-21T06:25:26;14.00;;;12.20;;
51558;SDS011;61650;48.882;2.092;2022-07-21T06:27:51;13.13;;;11.73;;
51558;SDS011;61650;48.882;2.092;2022-07-21T06:30:17;15.83;;;11.33;;
51558;SDS011;61650;48.882;2.092;2022-07-21T06:32:42;12.83;;;11.40;;
51558;SDS011;61650;48.882;2.092;2022-07-21T06:35:08;12.80;;;11.47;;
51558;SDS011;61650;48.882;2.092;2022-07-21T06:37:34;15.10;;;11.57;;
51558;SDS011;61650;48.882;2.092;2022-07-21T06:40:00;13.83;;;12.27;;
51558;SDS011;61650;48.882;2.092;2022-07-21T06:42:25;15.27;;;11.90;;
51558;SDS011;61650;48.882;2.092;2022-07-21T06:44:51;13.23;;;11.83;;
51558;SDS011;61650;48.882;2.092;2022-07-21T06:47:16;14.50;;;13.00;;
51558;SDS011;61650;48.882;2.092;2022-07-21T06:49:42;13.30;;;11.93;;
51558;SDS011;61650;48.882;2.092;2022-07-21T06:52:08;14.33;;;11.97;;
51558;SDS011;61650;48.882;2.092;2022-07-21T06:54:33;16.20;;;11.97;;
51558;SDS011;61650;48.882;2.092;2022-07-21T06:56:59;18.20;;;12.07;;
51558;SDS011;61650;48.882;2.092;2022-07-21T06:59:24;15.43;;;11.90;;
51558;SDS011;61650;48.882;2.092;2022-07-21T07:01:50;14.70;;;12.10;;
51558;SDS011;61650;48.882;2.092;2022-07-21T07:04:16;15.33;;;11.90;;
51558;SDS011;61650;48.882;2.092;2022-07-21T07:06:41;14.20;;;12.67;;
51558;SDS011;61650;48.882;2.092;2022-07-21T07:09:07;17.37;;;12.20;;
51558;SDS011;61650;48.882;2.092;2022-07-21T07:11:33;16.00;;;12.37;;
51558;SDS011;61650;48.882;2.092;2022-07-21T07:13:59;14.90;;;12.77;;
51558;SDS011;61650;48.882;2.092;2022-07-21T07:16:25;15.17;;;12.43;;
51558;SDS011;61650;48.882;2.092;2022-07-21T07:18:51;14.40;;;12.60;;
51558;SDS011;61650;48.882;2.092;2022-07-21T07:21:16;15.73;;;12.40;;
51558;SDS011;61650;48.882;2.092;2022-07-21T07:23:42;17.00;;;12.70;;
51558;SDS011;61650;48.882;2.092;2022-07-21T07:26:08;14.57;;;13.13;;
51558;SDS011;61650;48.882;2.092;2022-07-21T07:28:34;13.90;;;12.27;;
51558;SDS011;61650;48.882;2.092;2022-07-21T07:30:59;17.43;;;13.50;;
51558;SDS011;61650;48.882;2.092;2022-07-21T07:33:25;17.73;;;12.93;;
51558;SDS011;61650;48.882;2.092;2022-07-21T07:35:52;14.70;;;12.40;;
51558;SDS011;61650;48.882;2.092;2022-07-21T07:38:18;16.00;;;12.77;;
51558;SDS011;61650;48.882;2.092;2022-07-21T07:40:43;13.83;;;12.47;;
51558;SDS011;61650;48.882;2.092;2022-07-21T07:43:09;14.57;;;12.00;;
51558;SDS011;61650;48.882;2.092;2022-07-21T07:45:35;16.00;;;13.10;;
51558;SDS011;61650;48.882;2.092;2022-07-21T07:48:01;15.13;;;13.23;;
51558;SDS011;61650;48.882;2.092;2022-07-21T07:50:27;15.30;;;13.20;;
51558;SDS011;61650;48.882;2.092;2022-07-21T07:52:53;15.67;;;12.90;;
51558;SDS011;61650;48.882;2.092;2022-07-21T07:55:19;13.93;;;12.50;;
51558;SDS011;61650;48.882;2.092;2022-07-21T07:57:45;14.40;;;13.00;;
51558;SDS011;61650;48.882;2.092;2022-07-21T08:00:12;15.77;;;12.50;;
51558;SDS011;61650;48.882;2.092;2022-07-21T08:02:40;15.63;;;13.00;;
51558;SDS011;61650;48.882;2.092;2022-07-21T08:05:06;18.43;;;13.93;;
51558;SDS011;61650;48.882;2.092;2022-07-21T08:07:33;15.03;;;12.47;;
51558;SDS011;61650;48.882;2.092;2022-07-21T08:10:00;15.73;;;13.97;;
51558;SDS011;61650;48.882;2.092;2022-07-21T08:12:26;14.87;;;12.60;;
51558;SDS011;61650;48.882;2.092;2022-07-21T08:14:51;16.40;;;12.73;;
51558;SDS011;61650;48.882;2.092;2022-07-21T08:17:17;18.30;;;13.50;;
51558;SDS011;61650;48.882;2.092;2022-07-21T08:19:43;15.33;;;13.33;;
51558;SDS011;61650;48.882;2.092;2022-07-21T08:22:08;17.43;;;13.50;;
51558;SDS011;61650;48.882;2.092;2022-07-21T08:24:34;15.20;;;12.63;;
51558;SDS011;61650;48.882;2.092;2022-07-21T08:27:00;16.60;;;13.60;;
51558;SDS011;61650;48.882;2.092;2022-07-21T08:29:26;16.27;;;14.53;;
51558;SDS011;61650;48.882;2.092;2022-07-21T08:31:51;15.20;;;11.60;;
51558;SDS011;61650;48.882;2.092;2022-07-21T08:34:17;14.03;;;12.53;;
51558;SDS011;61650;48.882;2.092;2022-07-21T08:36:42;13.63;;;12.20;;
51558;SDS011;61650;48.882;2.092;2022-07-21T08:39:08;18.40;;;13.30;;
51558;SDS011;61650;48.882;2.092;2022-07-21T08:41:34;14.20;;;12.20;;
51558;SDS011;61650;48.882;2.092;2022-07-21T08:44:01;13.50;;;12.10;;
51558;SDS011;61650;48.882;2.092;2022-07-21T08:46:26;16.73;;;12.77;;
51558;SDS011;61650;48.882;2.092;2022-07-21T08:48:53;14.03;;;12.40;;
51558;SDS011;61650;48.882;2.092;2022-07-21T08:51:19;13.60;;;12.20;;
51558;SDS011;61650;48.882;2.092;2022-07-21T08:53:45;14.00;;;12.60;;
51558;SDS011;61650;48.882;2.092;2022-07-21T08:56:11;15.27;;;12.77;;
51558;SDS011;61650;48.882;2.092;2022-07-21T08:58:37;13.63;;;11.70;;
51558;SDS011;61650;48.882;2.092;2022-07-21T09:01:03;13.80;;;12.00;;
51558;SDS011;61650;48.882;2.092;2022-07-21T09:03:29;13.80;;;12.40;;
51558;SDS011;61650;48.882;2.092;2022-07-21T09:05:59;12.37;;;11.17;;
51558;SDS011;61650;48.882;2.092;2022-07-21T09:08:44;13.23;;;11.83;;
51558;SDS011;61650;48.882;2.092;2022-07-21T09:11:22;12.07;;;10.70;;
51558;SDS011;61650;48.882;2.092;2022-07-21T09:14:03;12.43;;;11.13;;
51558;SDS011;61650;48.882;2.092;2022-07-21T09:16:33;11.83;;;10.10;;
51558;SDS011;61650;48.882;2.092;2022-07-21T09:18:59;14.17;;;11.37;;
51558;SDS011;61650;48.882;2.092;2022-07-21T09:21:26;13.27;;;11.87;;
51558;SDS011;61650;48.882;2.092;2022-07-21T09:23:53;12.27;;;10.97;;
51558;SDS011;61650;48.882;2.092;2022-07-21T09:27:06;12.13;;;10.83;;
51558;SDS011;61650;48.882;2.092;2022-07-21T09:29:46;11.50;;;10.37;;
51558;SDS011;61650;48.882;2.092;2022-07-21T09:32:22;11.37;;;10.37;;
51558;SDS011;61650;48.882;2.092;2022-07-21T09:34:59;12.10;;;10.90;;
51558;SDS011;61650;48.882;2.092;2022-07-21T09:37:27;12.03;;;10.30;;
51558;SDS011;61650;48.882;2.092;2022-07-21T09:39:53;11.70;;;10.50;;
51558;SDS011;61650;48.882;2.092;2022-07-21T09:44:55;14.73;;;11.30;;
51558;SDS011;61650;48.882;2.092;2022-07-21T09:47:26;14.23;;;10.60;;
51558;SDS011;61650;48.882;2.092;2022-07-21T09:49:54;12.60;;;10.63;;
51558;SDS011;61650;48.882;2.092;2022-07-21T09:54:47;10.83;;;9.73;;
51558;SDS011;61650;48.882;2.092;2022-07-21T09:57:14;10.83;;;9.73;;
51558;SDS011;61650;48.882;2.092;2022-07-21T09:59:44;10.90;;;9.90;;
51558;SDS011;61650;48.882;2.092;2022-07-21T10:02:14;10.73;;;9.73;;
51558;SDS011;61650;48.882;2.092;2022-07-21T10:04:50;10.33;;;9.43;;
51558;SDS011;61650;48.882;2.092;2022-07-21T10:07:22;10.90;;;9.77;;
51558;SDS011;61650;48.882;2.092;2022-07-21T10:09:47;12.00;;;10.70;;
51558;SDS011;61650;48.882;2.092;2022-07-21T10:12:14;12.83;;;10.37;;
51558;SDS011;61650;48.882;2.092;2022-07-21T10:14:41;10.73;;;9.73;;
51558;SDS011;61650;48.882;2.092;2022-07-21T10:17:07;10.97;;;9.87;;
51558;SDS011;61650;48.882;2.092;2022-07-21T10:20:08;10.80;;;9.80;;
51558;SDS011;61650;48.882;2.092;2022-07-21T10:25:39;12.67;;;10.17;;
51558;SDS011;61650;48.882;2.092;2022-07-21T10:30:44;10.73;;;9.63;;
51558;SDS011;61650;48.882;2.092;2022-07-21T10:33:20;12.07;;;10.10;;
51558;SDS011;61650;48.882;2.092;2022-07-21T10:36:06;11.00;;;10.00;;
51558;SDS011;61650;48.882;2.092;2022-07-21T10:38:33;11.40;;;10.30;;
51558;SDS011;61650;48.882;2.092;2022-07-21T10:40:59;10.80;;;9.77;;
51558;SDS011;61650;48.882;2.092;2022-07-21T10:45:52;10.80;;;9.70;;
51558;SDS011;61650;48.882;2.092;2022-07-21T10:51:14;11.03;;;10.03;;
51558;SDS011;61650;48.882;2.092;2022-07-21T10:53:41;11.07;;;10.07;;
51558;SDS011;61650;48.882;2.092;2022-07-21T10:56:09;10.67;;;9.63;;
51558;SDS011;61650;48.882;2.092;2022-07-21T10:58:56;10.37;;;9.37;;
51558;SDS011;61650;48.882;2.092;2022-07-21T11:01:22;9.77;;;8.97;;
51558;SDS011;61650;48.882;2.092;2022-07-21T11:04:13;11.50;;;10.50;;
51558;SDS011;61650;48.882;2.092;2022-07-21T11:06:45;11.87;;;10.67;;
51558;SDS011;61650;48.882;2.092;2022-07-21T11:09:13;11.40;;;10.23;;
51558;SDS011;61650;48.882;2.092;2022-07-21T11:12:00;10.93;;;9.93;;
51558;SDS011;61650;48.882;2.092;2022-07-21T11:14:49;11.30;;;9.43;;
51558;SDS011;61650;48.882;2.092;2022-07-21T11:17:28;11.70;;;9.63;;
51558;SDS011;61650;48.882;2.092;2022-07-21T11:19:55;10.70;;;9.60;;
51558;SDS011;61650;48.882;2.092;2022-07-21T11:22:24;10.23;;;9.23;;
51558;SDS011;61650;48.882;2.092;2022-07-21T11:24:56;10.47;;;9.47;;
51558;SDS011;61650;48.882;2.092;2022-07-21T11:27:31;11.13;;;9.13;;
51558;SDS011;61650;48.882;2.092;2022-07-21T11:30:01;11.30;;;10.20;;
51558;SDS011;61650;48.882;2.092;2022-07-21T11:32:31;10.73;;;9.27;;
51558;SDS011;61650;48.882;2.092;2022-07-21T11:35:01;11.20;;;10.10;;
51558;SDS011;61650;48.882;2.092;2022-07-21T11:37:38;9.20;;;8.33;;
51558;SDS011;61650;48.882;2.092;2022-07-21T11:40:11;10.70;;;9.10;;
51558;SDS011;61650;48.882;2.092;2022-07-21T11:42:43;10.80;;;9.80;;
51558;SDS011;61650;48.882;2.092;2022-07-21T11:45:11;31.63;;;9.93;;
51558;SDS011;61650;48.882;2.092;2022-07-21T11:47:38;9.30;;;8.50;;
51558;SDS011;61650;48.882;2.092;2022-07-21T11:50:05;8.93;;;8.13;;
51558;SDS011;61650;48.882;2.092;2022-07-21T11:52:35;8.90;;;8.10;;
51558;SDS011;61650;48.882;2.092;2022-07-21T11:55:03;9.73;;;8.83;;
51558;SDS011;61650;48.882;2.092;2022-07-21T11:57:30;9.13;;;8.43;;
51558;SDS011;61650;48.882;2.092;2022-07-21T11:59:57;9.10;;;8.27;;
51558;SDS011;61650;48.882;2.092;2022-07-21T12:02:24;9.20;;;8.30;;
51558;SDS011;61650;48.882;2.092;2022-07-21T12:04:52;8.87;;;8.00;;
51558;SDS011;61650;48.882;2.092;2022-07-21T12:10:08;8.93;;;8.13;;
51558;SDS011;61650;48.882;2.092;2022-07-21T12:12:50;9.27;;;8.47;;
51558;SDS011;61650;48.882;2.092;2022-07-21T12:15:20;8.47;;;7.67;;
51558;SDS011;61650;48.882;2.092;2022-07-21T12:17:52;8.30;;;7.60;;
51558;SDS011;61650;48.882;2.092;2022-07-21T12:23:21;8.80;;;7.90;;
51558;SDS011;61650;48.882;2.092;2022-07-21T12:25:48;8.80;;;7.43;;
51558;SDS011;61650;48.882;2.092;2022-07-21T12:28:14;7.83;;;7.03;;
51558;SDS011;61650;48.882;2.092;2022-07-21T12:30:41;8.43;;;7.60;;
51558;SDS011;61650;48.882;2.092;2022-07-21T12:35:33;7.43;;;6.87;;
51558;SDS011;61650;48.882;2.092;2022-07-21T12:38:12;8.30;;;7.50;;
51558;SDS011;61650;48.882;2.092;2022-07-21T12:40:43;7.43;;;6.80;;
51558;SDS011;61650;48.882;2.092;2022-07-21T12:43:18;8.83;;;6.97;;
51558;SDS011;61650;48.882;2.092;2022-07-21T12:45:56;7.30;;;6.70;;
51558;SDS011;61650;48.882;2.092;2022-07-21T12:48:26;7.23;;;6.63;;
51558;SDS011;61650;48.882;2.092;2022-07-21T12:51:41;7.40;;;6.80;;
51558;SDS011;61650;48.882;2.092;2022-07-21T12:53:48;6.93;;;6.40;;
51558;SDS011;61650;48.882;2.092;2022-07-21T12:56:16;6.90;;;6.40;;
51558;SDS011;61650;48.882;2.092;2022-07-21T12:58:43;7.70;;;7.10;;
51558;SDS011;61650;48.882;2.092;2022-07-21T13:01:10;8.17;;;6.87;;
51558;SDS011;61650;48.882;2.092;2022-07-21T13:03:36;7.67;;;7.07;;
51558;SDS011;61650;48.882;2.092;2022-07-21T13:06:03;7.13;;;6.43;;
51558;SDS011;61650;48.882;2.092;2022-07-21T13:08:30;7.53;;;6.93;;
51558;SDS011;61650;48.882;2.092;2022-07-21T13:10:56;7.90;;;7.20;;
51558;SDS011;61650;48.882;2.092;2022-07-21T13:13:22;6.73;;;6.23;;
51558;SDS011;61650;48.882;2.092;2022-07-21T13:15:48;8.80;;;7.90;;
51558;SDS011;61650;48.882;2.092;2022-07-21T13:18:14;7.93;;;7.20;;
51558;SDS011;61650;48.882;2.092;2022-07-21T13:20:40;7.70;;;7.00;;
51558;SDS011;61650;48.882;2.092;2022-07-21T13:23:05;8.80;;;8.07;;
51558;SDS011;61650;48.882;2.092;2022-07-21T13:25:33;7.93;;;7.23;;
51558;SDS011;61650;48.882;2.092;2022-07-21T13:27:59;8.90;;;8.10;;
51558;SDS011;61650;48.882;2.092;2022-07-21T13:30:25;9.70;;;8.10;;
51558;SDS011;61650;48.882;2.092;2022-07-21T13:32:51;8.30;;;7.63;;
51558;SDS011;61650;48.882;2.092;2022-07-21T13:35:16;8.90;;;7.97;;
51558;SDS011;61650;48.882;2.092;2022-07-21T13:37:42;8.53;;;7.63;;
51558;SDS011;61650;48.882;2.092;2022-07-21T13:40:08;8.77;;;7.97;;
51558;SDS011;61650;48.882;2.092;2022-07-21T13:42:34;8.80;;;7.90;;
51558;SDS011;61650;48.882;2.092;2022-07-21T13:44:59;10.40;;;8.00;;
51558;SDS011;61650;48.882;2.092;2022-07-21T13:47:25;8.47;;;7.77;;
51558;SDS011;61650;48.882;2.092;2022-07-21T13:49:51;8.13;;;7.43;;
51558;SDS011;61650;48.882;2.092;2022-07-21T13:52:16;8.73;;;8.00;;
51558;SDS011;61650;48.882;2.092;2022-07-21T13:54:42;9.27;;;8.47;;
51558;SDS011;61650;48.882;2.092;2022-07-21T13:57:07;8.60;;;7.90;;
51558;SDS011;61650;48.882;2.092;2022-07-21T13:59:33;9.43;;;8.63;;
51558;SDS011;61650;48.882;2.092;2022-07-21T14:02:00;8.93;;;8.13;;
51558;SDS011;61650;48.882;2.092;2022-07-21T14:04:25;9.57;;;8.07;;
51558;SDS011;61650;48.882;2.092;2022-07-21T14:06:51;8.67;;;7.87;;
51558;SDS011;61650;48.882;2.092;2022-07-21T14:09:17;9.10;;;8.10;;
51558;SDS011;61650;48.882;2.092;2022-07-21T14:11:43;8.93;;;8.13;;
51558;SDS011;61650;48.882;2.092;2022-07-21T14:14:10;9.23;;;8.30;;
51558;SDS011;61650;48.882;2.092;2022-07-21T14:16:42;9.70;;;8.70;;
51558;SDS011;61650;48.882;2.092;2022-07-21T14:19:10;8.73;;;7.83;;
51558;SDS011;61650;48.882;2.092;2022-07-21T14:21:35;9.20;;;8.50;;
51558;SDS011;61650;48.882;2.092;2022-07-21T14:24:01;8.83;;;8.13;;
51558;SDS011;61650;48.882;2.092;2022-07-21T14:26:45;9.03;;;8.20;;
51558;SDS011;61650;48.882;2.092;2022-07-21T14:29:11;9.27;;;8.37;;
51558;SDS011;61650;48.882;2.092;2022-07-21T14:31:37;8.97;;;8.03;;
51558;SDS011;61650;48.882;2.092;2022-07-21T14:34:02;9.30;;;8.50;;
51558;SDS011;61650;48.882;2.092;2022-07-21T14:36:28;8.90;;;8.20;;
51558;SDS011;61650;48.882;2.092;2022-07-21T14:38:54;8.73;;;8.03;;
51558;SDS011;61650;48.882;2.092;2022-07-21T14:41:19;9.03;;;8.23;;
51558;SDS011;61650;48.882;2.092;2022-07-21T14:43:45;8.97;;;8.13;;
51558;SDS011;61650;48.882;2.092;2022-07-21T14:46:13;8.83;;;8.07;;
51558;SDS011;61650;48.882;2.092;2022-07-21T14:48:39;8.67;;;7.97;;
51558;SDS011;61650;48.882;2.092;2022-07-21T14:51:05;9.10;;;8.23;;
51558;SDS011;61650;48.882;2.092;2022-07-21T14:53:30;9.37;;;8.50;;
51558;SDS011;61650;48.882;2.092;2022-07-21T14:55:56;9.63;;;8.77;;
51558;SDS011;61650;48.882;2.092;2022-07-21T14:58:21;9.60;;;8.30;;
51558;SDS011;61650;48.882;2.092;2022-07-21T15:00:48;9.03;;;8.20;;
51558;SDS011;61650;48.882;2.092;2022-07-21T15:03:14;8.90;;;7.90;;